<?xml version="1.0" encoding="UTF-8" standalone="no" ?>
<gpx xmlns="http://www.topografix.com/GPX/1/1" xmlns:xsi="http://www.w3.org/2001/XMLSchema-instance" xsi:schemaLocation="http://www.topografix.com/GPX/1/1 http://www.topografix.com/GPX/1/1/gpx.xsd" version="1.1" creator="VisuGPX - https://www.visugpx.com">
  <metadata>
    <name>Crey Rond</name>
  </metadata>
  <trk>
    <name><![CDATA[Tracé actuel: 28 FEV 2021 08:36]]></name>
    <trkseg>
      <trkpt lat="45.15243" lon="6.42003">
        <ele>1568.05</ele>
        <time>2021-02-28T07:39:45Z</time>
      </trkpt>
      <trkpt lat="45.15242" lon="6.41997">
        <ele>1568.05</ele>
        <time>2021-02-28T07:43:08Z</time>
      </trkpt>
      <trkpt lat="45.15231" lon="6.41969">
        <ele>1569.49</ele>
        <time>2021-02-28T07:43:38Z</time>
      </trkpt>
      <trkpt lat="45.15223" lon="6.41947">
        <ele>1571.41</ele>
        <time>2021-02-28T07:44:18Z</time>
      </trkpt>
      <trkpt lat="45.15224" lon="6.41935">
        <ele>1570.45</ele>
        <time>2021-02-28T07:45:50Z</time>
      </trkpt>
      <trkpt lat="45.15234" lon="6.41911">
        <ele>1570.93</ele>
        <time>2021-02-28T07:46:14Z</time>
      </trkpt>
      <trkpt lat="45.15245" lon="6.4189">
        <ele>1570.45</ele>
        <time>2021-02-28T07:47:40Z</time>
      </trkpt>
      <trkpt lat="45.15242" lon="6.41866">
        <ele>1573.82</ele>
        <time>2021-02-28T07:48:16Z</time>
      </trkpt>
      <trkpt lat="45.15221" lon="6.41846">
        <ele>1577.18</ele>
        <time>2021-02-28T07:48:56Z</time>
      </trkpt>
      <trkpt lat="45.15212" lon="6.41825">
        <ele>1581.03</ele>
        <time>2021-02-28T07:49:39Z</time>
      </trkpt>
      <trkpt lat="45.15222" lon="6.41808">
        <ele>1588.24</ele>
        <time>2021-02-28T07:50:43Z</time>
      </trkpt>
      <trkpt lat="45.15233" lon="6.41803">
        <ele>1590.16</ele>
        <time>2021-02-28T07:52:03Z</time>
      </trkpt>
      <trkpt lat="45.15253" lon="6.41791">
        <ele>1593.04</ele>
        <time>2021-02-28T07:52:41Z</time>
      </trkpt>
      <trkpt lat="45.15271" lon="6.41789">
        <ele>1593.04</ele>
        <time>2021-02-28T07:53:08Z</time>
      </trkpt>
      <trkpt lat="45.15291" lon="6.41775">
        <ele>1597.37</ele>
        <time>2021-02-28T07:53:45Z</time>
      </trkpt>
      <trkpt lat="45.15311" lon="6.41759">
        <ele>1602.17</ele>
        <time>2021-02-28T07:54:27Z</time>
      </trkpt>
      <trkpt lat="45.15319" lon="6.41741">
        <ele>1604.58</ele>
        <time>2021-02-28T07:55:33Z</time>
      </trkpt>
      <trkpt lat="45.15332" lon="6.41716">
        <ele>1610.83</ele>
        <time>2021-02-28T07:56:17Z</time>
      </trkpt>
      <trkpt lat="45.15346" lon="6.41696">
        <ele>1616.11</ele>
        <time>2021-02-28T07:56:54Z</time>
      </trkpt>
      <trkpt lat="45.15334" lon="6.41677">
        <ele>1622.36</ele>
        <time>2021-02-28T07:57:42Z</time>
      </trkpt>
      <trkpt lat="45.15345" lon="6.41655">
        <ele>1627.17</ele>
        <time>2021-02-28T07:58:28Z</time>
      </trkpt>
      <trkpt lat="45.1536" lon="6.4163">
        <ele>1632.94</ele>
        <time>2021-02-28T07:59:21Z</time>
      </trkpt>
      <trkpt lat="45.15373" lon="6.4161">
        <ele>1637.26</ele>
        <time>2021-02-28T08:00:01Z</time>
      </trkpt>
      <trkpt lat="45.15369" lon="6.41587">
        <ele>1643.03</ele>
        <time>2021-02-28T08:00:56Z</time>
      </trkpt>
      <trkpt lat="45.15381" lon="6.41563">
        <ele>1647.84</ele>
        <time>2021-02-28T08:02:01Z</time>
      </trkpt>
      <trkpt lat="45.1539" lon="6.41533">
        <ele>1652.16</ele>
        <time>2021-02-28T08:02:47Z</time>
      </trkpt>
      <trkpt lat="45.154" lon="6.41505">
        <ele>1656.97</ele>
        <time>2021-02-28T08:03:32Z</time>
      </trkpt>
      <trkpt lat="45.15409" lon="6.41481">
        <ele>1662.26</ele>
        <time>2021-02-28T08:04:16Z</time>
      </trkpt>
      <trkpt lat="45.15397" lon="6.41462">
        <ele>1668.51</ele>
        <time>2021-02-28T08:05:04Z</time>
      </trkpt>
      <trkpt lat="45.15403" lon="6.41442">
        <ele>1671.87</ele>
        <time>2021-02-28T08:05:47Z</time>
      </trkpt>
      <trkpt lat="45.15382" lon="6.41436">
        <ele>1676.2</ele>
        <time>2021-02-28T08:06:24Z</time>
      </trkpt>
      <trkpt lat="45.15379" lon="6.41422">
        <ele>1680.52</ele>
        <time>2021-02-28T08:06:59Z</time>
      </trkpt>
      <trkpt lat="45.15395" lon="6.41398">
        <ele>1684.37</ele>
        <time>2021-02-28T08:07:40Z</time>
      </trkpt>
      <trkpt lat="45.15411" lon="6.41385">
        <ele>1688.21</ele>
        <time>2021-02-28T08:08:14Z</time>
      </trkpt>
      <trkpt lat="45.15413" lon="6.41361">
        <ele>1693.98</ele>
        <time>2021-02-28T08:08:59Z</time>
      </trkpt>
      <trkpt lat="45.1541" lon="6.41345">
        <ele>1700.71</ele>
        <time>2021-02-28T08:09:52Z</time>
      </trkpt>
      <trkpt lat="45.15393" lon="6.41335">
        <ele>1707.44</ele>
        <time>2021-02-28T08:10:49Z</time>
      </trkpt>
      <trkpt lat="45.15403" lon="6.4132">
        <ele>1713.21</ele>
        <time>2021-02-28T08:11:49Z</time>
      </trkpt>
      <trkpt lat="45.1538" lon="6.41317">
        <ele>1717.05</ele>
        <time>2021-02-28T08:12:42Z</time>
      </trkpt>
      <trkpt lat="45.15365" lon="6.41323">
        <ele>1716.09</ele>
        <time>2021-02-28T08:14:28Z</time>
      </trkpt>
      <trkpt lat="45.15359" lon="6.41299">
        <ele>1722.34</ele>
        <time>2021-02-28T08:15:51Z</time>
      </trkpt>
      <trkpt lat="45.15337" lon="6.41277">
        <ele>1726.67</ele>
        <time>2021-02-28T08:16:32Z</time>
      </trkpt>
      <trkpt lat="45.15319" lon="6.41263">
        <ele>1729.07</ele>
        <time>2021-02-28T08:17:04Z</time>
      </trkpt>
      <trkpt lat="45.15307" lon="6.41244">
        <ele>1733.39</ele>
        <time>2021-02-28T08:17:38Z</time>
      </trkpt>
      <trkpt lat="45.15293" lon="6.41219">
        <ele>1739.16</ele>
        <time>2021-02-28T08:18:27Z</time>
      </trkpt>
      <trkpt lat="45.15278" lon="6.41197">
        <ele>1744.93</ele>
        <time>2021-02-28T08:19:17Z</time>
      </trkpt>
      <trkpt lat="45.15264" lon="6.41175">
        <ele>1751.18</ele>
        <time>2021-02-28T08:20:12Z</time>
      </trkpt>
      <trkpt lat="45.15275" lon="6.41153">
        <ele>1758.87</ele>
        <time>2021-02-28T08:21:20Z</time>
      </trkpt>
      <trkpt lat="45.15262" lon="6.41135">
        <ele>1764.64</ele>
        <time>2021-02-28T08:22:15Z</time>
      </trkpt>
      <trkpt lat="45.15255" lon="6.41112">
        <ele>1771.85</ele>
        <time>2021-02-28T08:23:20Z</time>
      </trkpt>
      <trkpt lat="45.15258" lon="6.41098">
        <ele>1776.65</ele>
        <time>2021-02-28T08:24:09Z</time>
      </trkpt>
      <trkpt lat="45.15252" lon="6.41073">
        <ele>1782.42</ele>
        <time>2021-02-28T08:25:02Z</time>
      </trkpt>
      <trkpt lat="45.1525" lon="6.41046">
        <ele>1787.23</ele>
        <time>2021-02-28T08:25:49Z</time>
      </trkpt>
      <trkpt lat="45.15233" lon="6.41032">
        <ele>1792.03</ele>
        <time>2021-02-28T08:26:34Z</time>
      </trkpt>
      <trkpt lat="45.15237" lon="6.41013">
        <ele>1797.8</ele>
        <time>2021-02-28T08:27:25Z</time>
      </trkpt>
      <trkpt lat="45.15229" lon="6.41002">
        <ele>1801.17</ele>
        <time>2021-02-28T08:27:59Z</time>
      </trkpt>
      <trkpt lat="45.15211" lon="6.40992">
        <ele>1805.97</ele>
        <time>2021-02-28T08:28:45Z</time>
      </trkpt>
      <trkpt lat="45.1521" lon="6.40976">
        <ele>1811.26</ele>
        <time>2021-02-28T08:29:49Z</time>
      </trkpt>
      <trkpt lat="45.15207" lon="6.40957">
        <ele>1819.43</ele>
        <time>2021-02-28T08:30:50Z</time>
      </trkpt>
      <trkpt lat="45.15224" lon="6.40946">
        <ele>1824.72</ele>
        <time>2021-02-28T08:31:35Z</time>
      </trkpt>
      <trkpt lat="45.15242" lon="6.40935">
        <ele>1830.49</ele>
        <time>2021-02-28T08:32:38Z</time>
      </trkpt>
      <trkpt lat="45.15229" lon="6.40916">
        <ele>1836.26</ele>
        <time>2021-02-28T08:33:30Z</time>
      </trkpt>
      <trkpt lat="45.15234" lon="6.40905">
        <ele>1842.5</ele>
        <time>2021-02-28T08:34:24Z</time>
      </trkpt>
      <trkpt lat="45.1525" lon="6.40894">
        <ele>1847.79</ele>
        <time>2021-02-28T08:35:16Z</time>
      </trkpt>
      <trkpt lat="45.15252" lon="6.40876">
        <ele>1854.04</ele>
        <time>2021-02-28T08:36:05Z</time>
      </trkpt>
      <trkpt lat="45.1526" lon="6.40858">
        <ele>1861.25</ele>
        <time>2021-02-28T08:37:33Z</time>
      </trkpt>
      <trkpt lat="45.15279" lon="6.40843">
        <ele>1868.46</ele>
        <time>2021-02-28T08:38:25Z</time>
      </trkpt>
      <trkpt lat="45.15284" lon="6.4082">
        <ele>1875.19</ele>
        <time>2021-02-28T08:39:14Z</time>
      </trkpt>
      <trkpt lat="45.15281" lon="6.40799">
        <ele>1881.44</ele>
        <time>2021-02-28T08:40:07Z</time>
      </trkpt>
      <trkpt lat="45.15294" lon="6.40781">
        <ele>1889.61</ele>
        <time>2021-02-28T08:41:07Z</time>
      </trkpt>
      <trkpt lat="45.15307" lon="6.40761">
        <ele>1896.82</ele>
        <time>2021-02-28T08:42:08Z</time>
      </trkpt>
      <trkpt lat="45.15316" lon="6.40745">
        <ele>1898.74</ele>
        <time>2021-02-28T08:45:38Z</time>
      </trkpt>
      <trkpt lat="45.15326" lon="6.40719">
        <ele>1901.63</ele>
        <time>2021-02-28T08:46:19Z</time>
      </trkpt>
      <trkpt lat="45.1533" lon="6.40694">
        <ele>1907.87</ele>
        <time>2021-02-28T08:47:10Z</time>
      </trkpt>
      <trkpt lat="45.15334" lon="6.40669">
        <ele>1911.72</ele>
        <time>2021-02-28T08:47:49Z</time>
      </trkpt>
      <trkpt lat="45.1533" lon="6.40656">
        <ele>1916.04</ele>
        <time>2021-02-28T08:49:15Z</time>
      </trkpt>
      <trkpt lat="45.15338" lon="6.40635">
        <ele>1924.22</ele>
        <time>2021-02-28T08:50:20Z</time>
      </trkpt>
      <trkpt lat="45.1534" lon="6.4061">
        <ele>1929.98</ele>
        <time>2021-02-28T08:51:13Z</time>
      </trkpt>
      <trkpt lat="45.1534" lon="6.40584">
        <ele>1935.27</ele>
        <time>2021-02-28T08:51:55Z</time>
      </trkpt>
      <trkpt lat="45.15342" lon="6.40556">
        <ele>1941.52</ele>
        <time>2021-02-28T08:52:48Z</time>
      </trkpt>
      <trkpt lat="45.15341" lon="6.40531">
        <ele>1947.77</ele>
        <time>2021-02-28T08:53:42Z</time>
      </trkpt>
      <trkpt lat="45.15345" lon="6.4051">
        <ele>1955.46</ele>
        <time>2021-02-28T08:54:43Z</time>
      </trkpt>
      <trkpt lat="45.15365" lon="6.4051">
        <ele>1960.75</ele>
        <time>2021-02-28T08:55:37Z</time>
      </trkpt>
      <trkpt lat="45.15364" lon="6.40477">
        <ele>1967.96</ele>
        <time>2021-02-28T08:56:30Z</time>
      </trkpt>
      <trkpt lat="45.15359" lon="6.40449">
        <ele>1973.72</ele>
        <time>2021-02-28T08:57:23Z</time>
      </trkpt>
      <trkpt lat="45.15367" lon="6.40435">
        <ele>1981.9</ele>
        <time>2021-02-28T08:58:30Z</time>
      </trkpt>
      <trkpt lat="45.15376" lon="6.40423">
        <ele>1988.14</ele>
        <time>2021-02-28T08:59:20Z</time>
      </trkpt>
      <trkpt lat="45.15396" lon="6.40418">
        <ele>1994.87</ele>
        <time>2021-02-28T09:00:17Z</time>
      </trkpt>
      <trkpt lat="45.15411" lon="6.404">
        <ele>2002.08</ele>
        <time>2021-02-28T09:01:23Z</time>
      </trkpt>
      <trkpt lat="45.15418" lon="6.40386">
        <ele>2007.37</ele>
        <time>2021-02-28T09:02:21Z</time>
      </trkpt>
      <trkpt lat="45.15429" lon="6.4037">
        <ele>2012.66</ele>
        <time>2021-02-28T09:03:11Z</time>
      </trkpt>
      <trkpt lat="45.15444" lon="6.40352">
        <ele>2019.87</ele>
        <time>2021-02-28T09:04:12Z</time>
      </trkpt>
      <trkpt lat="45.15459" lon="6.40339">
        <ele>2023.23</ele>
        <time>2021-02-28T09:06:13Z</time>
      </trkpt>
      <trkpt lat="45.15454" lon="6.40313">
        <ele>2029.48</ele>
        <time>2021-02-28T09:06:59Z</time>
      </trkpt>
      <trkpt lat="45.15472" lon="6.40304">
        <ele>2034.77</ele>
        <time>2021-02-28T09:07:48Z</time>
      </trkpt>
      <trkpt lat="45.15487" lon="6.40289">
        <ele>2041.02</ele>
        <time>2021-02-28T09:08:40Z</time>
      </trkpt>
      <trkpt lat="45.15486" lon="6.40269">
        <ele>2046.3</ele>
        <time>2021-02-28T09:09:22Z</time>
      </trkpt>
      <trkpt lat="45.15476" lon="6.40245">
        <ele>2053.03</ele>
        <time>2021-02-28T09:10:20Z</time>
      </trkpt>
      <trkpt lat="45.1548" lon="6.40233">
        <ele>2059.76</ele>
        <time>2021-02-28T09:11:18Z</time>
      </trkpt>
      <trkpt lat="45.15478" lon="6.40218">
        <ele>2066.49</ele>
        <time>2021-02-28T09:12:31Z</time>
      </trkpt>
      <trkpt lat="45.15488" lon="6.40206">
        <ele>2074.66</ele>
        <time>2021-02-28T09:13:50Z</time>
      </trkpt>
      <trkpt lat="45.15486" lon="6.40193">
        <ele>2080.43</ele>
        <time>2021-02-28T09:15:14Z</time>
      </trkpt>
      <trkpt lat="45.15469" lon="6.4018">
        <ele>2085.72</ele>
        <time>2021-02-28T09:15:57Z</time>
      </trkpt>
      <trkpt lat="45.15451" lon="6.40167">
        <ele>2091</ele>
        <time>2021-02-28T09:16:51Z</time>
      </trkpt>
      <trkpt lat="45.15435" lon="6.40157">
        <ele>2098.7</ele>
        <time>2021-02-28T09:17:57Z</time>
      </trkpt>
      <trkpt lat="45.15417" lon="6.40143">
        <ele>2103.98</ele>
        <time>2021-02-28T09:18:48Z</time>
      </trkpt>
      <trkpt lat="45.15398" lon="6.40134">
        <ele>2110.23</ele>
        <time>2021-02-28T09:19:39Z</time>
      </trkpt>
      <trkpt lat="45.15408" lon="6.40113">
        <ele>2117.92</ele>
        <time>2021-02-28T09:20:47Z</time>
      </trkpt>
      <trkpt lat="45.15389" lon="6.40102">
        <ele>2124.65</ele>
        <time>2021-02-28T09:21:50Z</time>
      </trkpt>
      <trkpt lat="45.15377" lon="6.40084">
        <ele>2129.46</ele>
        <time>2021-02-28T09:23:07Z</time>
      </trkpt>
      <trkpt lat="45.15357" lon="6.40072">
        <ele>2136.19</ele>
        <time>2021-02-28T09:24:02Z</time>
      </trkpt>
      <trkpt lat="45.15346" lon="6.40054">
        <ele>2142.92</ele>
        <time>2021-02-28T09:24:53Z</time>
      </trkpt>
      <trkpt lat="45.1535" lon="6.40035">
        <ele>2149.65</ele>
        <time>2021-02-28T09:25:54Z</time>
      </trkpt>
      <trkpt lat="45.15334" lon="6.40019">
        <ele>2155.89</ele>
        <time>2021-02-28T09:26:49Z</time>
      </trkpt>
      <trkpt lat="45.15321" lon="6.39998">
        <ele>2162.14</ele>
        <time>2021-02-28T09:27:40Z</time>
      </trkpt>
      <trkpt lat="45.15325" lon="6.39983">
        <ele>2168.39</ele>
        <time>2021-02-28T09:29:34Z</time>
      </trkpt>
      <trkpt lat="45.15343" lon="6.3997">
        <ele>2174.16</ele>
        <time>2021-02-28T09:30:31Z</time>
      </trkpt>
      <trkpt lat="45.15331" lon="6.39946">
        <ele>2180.41</ele>
        <time>2021-02-28T09:31:35Z</time>
      </trkpt>
      <trkpt lat="45.15349" lon="6.39943">
        <ele>2187.62</ele>
        <time>2021-02-28T09:32:40Z</time>
      </trkpt>
      <trkpt lat="45.15367" lon="6.39939">
        <ele>2193.39</ele>
        <time>2021-02-28T09:33:27Z</time>
      </trkpt>
      <trkpt lat="45.15385" lon="6.39935">
        <ele>2199.15</ele>
        <time>2021-02-28T09:34:20Z</time>
      </trkpt>
      <trkpt lat="45.15405" lon="6.39928">
        <ele>2205.88</ele>
        <time>2021-02-28T09:35:17Z</time>
      </trkpt>
      <trkpt lat="45.15421" lon="6.39915">
        <ele>2214.53</ele>
        <time>2021-02-28T09:36:37Z</time>
      </trkpt>
      <trkpt lat="45.1542" lon="6.39888">
        <ele>2219.34</ele>
        <time>2021-02-28T09:37:33Z</time>
      </trkpt>
      <trkpt lat="45.1543" lon="6.3987">
        <ele>2227.03</ele>
        <time>2021-02-28T09:38:34Z</time>
      </trkpt>
      <trkpt lat="45.15424" lon="6.39849">
        <ele>2233.76</ele>
        <time>2021-02-28T09:39:22Z</time>
      </trkpt>
      <trkpt lat="45.15411" lon="6.39831">
        <ele>2238.57</ele>
        <time>2021-02-28T09:40:06Z</time>
      </trkpt>
      <trkpt lat="45.15396" lon="6.39814">
        <ele>2241.45</ele>
        <time>2021-02-28T09:40:43Z</time>
      </trkpt>
      <trkpt lat="45.15397" lon="6.39798">
        <ele>2243.37</ele>
        <time>2021-02-28T09:45:19Z</time>
      </trkpt>
      <trkpt lat="45.154" lon="6.39775">
        <ele>2249.14</ele>
        <time>2021-02-28T09:46:02Z</time>
      </trkpt>
      <trkpt lat="45.15396" lon="6.39749">
        <ele>2252.51</ele>
        <time>2021-02-28T09:46:39Z</time>
      </trkpt>
      <trkpt lat="45.15391" lon="6.39724">
        <ele>2256.35</ele>
        <time>2021-02-28T09:47:15Z</time>
      </trkpt>
      <trkpt lat="45.15384" lon="6.39693">
        <ele>2261.16</ele>
        <time>2021-02-28T09:48:04Z</time>
      </trkpt>
      <trkpt lat="45.15375" lon="6.39663">
        <ele>2267.41</ele>
        <time>2021-02-28T09:48:56Z</time>
      </trkpt>
      <trkpt lat="45.15367" lon="6.39634">
        <ele>2275.1</ele>
        <time>2021-02-28T09:49:58Z</time>
      </trkpt>
      <trkpt lat="45.15362" lon="6.39609">
        <ele>2280.87</ele>
        <time>2021-02-28T09:50:51Z</time>
      </trkpt>
      <trkpt lat="45.15356" lon="6.39584">
        <ele>2285.19</ele>
        <time>2021-02-28T09:51:38Z</time>
      </trkpt>
      <trkpt lat="45.15346" lon="6.39557">
        <ele>2291.44</ele>
        <time>2021-02-28T09:52:30Z</time>
      </trkpt>
      <trkpt lat="45.15337" lon="6.39528">
        <ele>2296.25</ele>
        <time>2021-02-28T09:53:25Z</time>
      </trkpt>
      <trkpt lat="45.15332" lon="6.39501">
        <ele>2300.57</ele>
        <time>2021-02-28T09:54:11Z</time>
      </trkpt>
      <trkpt lat="45.15323" lon="6.39474">
        <ele>2305.38</ele>
        <time>2021-02-28T09:55:00Z</time>
      </trkpt>
      <trkpt lat="45.1533" lon="6.39448">
        <ele>2313.07</ele>
        <time>2021-02-28T09:56:01Z</time>
      </trkpt>
      <trkpt lat="45.1534" lon="6.39436">
        <ele>2320.28</ele>
        <time>2021-02-28T09:57:08Z</time>
      </trkpt>
      <trkpt lat="45.15359" lon="6.39438">
        <ele>2326.05</ele>
        <time>2021-02-28T09:58:01Z</time>
      </trkpt>
      <trkpt lat="45.15359" lon="6.39414">
        <ele>2331.33</ele>
        <time>2021-02-28T09:59:20Z</time>
      </trkpt>
      <trkpt lat="45.15356" lon="6.39384">
        <ele>2335.18</ele>
        <time>2021-02-28T10:00:00Z</time>
      </trkpt>
      <trkpt lat="45.1535" lon="6.39351">
        <ele>2340.95</ele>
        <time>2021-02-28T10:00:56Z</time>
      </trkpt>
      <trkpt lat="45.1534" lon="6.39325">
        <ele>2344.31</ele>
        <time>2021-02-28T10:01:41Z</time>
      </trkpt>
      <trkpt lat="45.15333" lon="6.39302">
        <ele>2350.08</ele>
        <time>2021-02-28T10:02:34Z</time>
      </trkpt>
      <trkpt lat="45.15323" lon="6.39279">
        <ele>2356.81</ele>
        <time>2021-02-28T10:03:30Z</time>
      </trkpt>
      <trkpt lat="45.15324" lon="6.39255">
        <ele>2363.54</ele>
        <time>2021-02-28T10:04:29Z</time>
      </trkpt>
      <trkpt lat="45.15311" lon="6.39244">
        <ele>2368.83</ele>
        <time>2021-02-28T10:06:49Z</time>
      </trkpt>
      <trkpt lat="45.15307" lon="6.39229">
        <ele>2374.59</ele>
        <time>2021-02-28T10:07:44Z</time>
      </trkpt>
      <trkpt lat="45.15294" lon="6.39224">
        <ele>2381.8</ele>
        <time>2021-02-28T10:08:56Z</time>
      </trkpt>
      <trkpt lat="45.15283" lon="6.39207">
        <ele>2388.53</ele>
        <time>2021-02-28T10:09:52Z</time>
      </trkpt>
      <trkpt lat="45.1528" lon="6.39181">
        <ele>2393.82</ele>
        <time>2021-02-28T10:10:45Z</time>
      </trkpt>
      <trkpt lat="45.15278" lon="6.39154">
        <ele>2398.63</ele>
        <time>2021-02-28T10:11:32Z</time>
      </trkpt>
      <trkpt lat="45.15274" lon="6.39129">
        <ele>2401.99</ele>
        <time>2021-02-28T10:12:30Z</time>
      </trkpt>
      <trkpt lat="45.15274" lon="6.39104">
        <ele>2405.84</ele>
        <time>2021-02-28T10:14:09Z</time>
      </trkpt>
      <trkpt lat="45.15275" lon="6.39077">
        <ele>2408.24</ele>
        <time>2021-02-28T10:15:30Z</time>
      </trkpt>
      <trkpt lat="45.1528" lon="6.39045">
        <ele>2412.57</ele>
        <time>2021-02-28T10:16:17Z</time>
      </trkpt>
      <trkpt lat="45.15286" lon="6.39011">
        <ele>2419.3</ele>
        <time>2021-02-28T10:17:03Z</time>
      </trkpt>
      <trkpt lat="45.15279" lon="6.38985">
        <ele>2419.78</ele>
        <time>2021-02-28T10:17:41Z</time>
      </trkpt>
      <trkpt lat="45.15275" lon="6.38963">
        <ele>2425.06</ele>
        <time>2021-02-28T10:18:42Z</time>
      </trkpt>
      <trkpt lat="45.15265" lon="6.38946">
        <ele>2431.31</ele>
        <time>2021-02-28T10:19:43Z</time>
      </trkpt>
      <trkpt lat="45.15261" lon="6.38923">
        <ele>2438.04</ele>
        <time>2021-02-28T10:20:44Z</time>
      </trkpt>
      <trkpt lat="45.15261" lon="6.38893">
        <ele>2445.25</ele>
        <time>2021-02-28T10:21:52Z</time>
      </trkpt>
      <trkpt lat="45.15262" lon="6.38864">
        <ele>2451.98</ele>
        <time>2021-02-28T10:22:57Z</time>
      </trkpt>
      <trkpt lat="45.15267" lon="6.38833">
        <ele>2456.31</ele>
        <time>2021-02-28T10:23:59Z</time>
      </trkpt>
      <trkpt lat="45.15273" lon="6.38801">
        <ele>2462.55</ele>
        <time>2021-02-28T10:24:59Z</time>
      </trkpt>
      <trkpt lat="45.15276" lon="6.38775">
        <ele>2466.4</ele>
        <time>2021-02-28T10:25:45Z</time>
      </trkpt>
      <trkpt lat="45.15263" lon="6.38758">
        <ele>2472.17</ele>
        <time>2021-02-28T10:26:46Z</time>
      </trkpt>
      <trkpt lat="45.15266" lon="6.38743">
        <ele>2478.42</ele>
        <time>2021-02-28T10:28:02Z</time>
      </trkpt>
      <trkpt lat="45.15262" lon="6.38724">
        <ele>2485.63</ele>
        <time>2021-02-28T10:29:15Z</time>
      </trkpt>
      <trkpt lat="45.15272" lon="6.38712">
        <ele>2492.84</ele>
        <time>2021-02-28T10:31:12Z</time>
      </trkpt>
      <trkpt lat="45.15262" lon="6.3869">
        <ele>2500.53</ele>
        <time>2021-02-28T10:32:10Z</time>
      </trkpt>
      <trkpt lat="45.15255" lon="6.38665">
        <ele>2508.22</ele>
        <time>2021-02-28T10:33:14Z</time>
      </trkpt>
      <trkpt lat="45.15267" lon="6.38657">
        <ele>2513.02</ele>
        <time>2021-02-28T10:34:18Z</time>
      </trkpt>
      <trkpt lat="45.15265" lon="6.38641">
        <ele>2519.27</ele>
        <time>2021-02-28T10:35:20Z</time>
      </trkpt>
      <trkpt lat="45.15257" lon="6.38627">
        <ele>2526.48</ele>
        <time>2021-02-28T10:36:25Z</time>
      </trkpt>
      <trkpt lat="45.15261" lon="6.38614">
        <ele>2532.73</ele>
        <time>2021-02-28T10:38:07Z</time>
      </trkpt>
      <trkpt lat="45.15257" lon="6.38597">
        <ele>2540.9</ele>
        <time>2021-02-28T10:39:58Z</time>
      </trkpt>
      <trkpt lat="45.15248" lon="6.38577">
        <ele>2546.67</ele>
        <time>2021-02-28T10:41:13Z</time>
      </trkpt>
      <trkpt lat="45.15246" lon="6.38561">
        <ele>2552.92</ele>
        <time>2021-02-28T10:42:17Z</time>
      </trkpt>
      <trkpt lat="45.15259" lon="6.38545">
        <ele>2559.17</ele>
        <time>2021-02-28T10:43:11Z</time>
      </trkpt>
      <trkpt lat="45.15247" lon="6.38526">
        <ele>2566.86</ele>
        <time>2021-02-28T10:44:03Z</time>
      </trkpt>
      <trkpt lat="45.15235" lon="6.38503">
        <ele>2574.55</ele>
        <time>2021-02-28T10:45:03Z</time>
      </trkpt>
      <trkpt lat="45.1522" lon="6.38486">
        <ele>2576.95</ele>
        <time>2021-02-28T10:46:54Z</time>
      </trkpt>
      <trkpt lat="45.15217" lon="6.3847">
        <ele>2580.8</ele>
        <time>2021-02-28T10:50:10Z</time>
      </trkpt>
      <trkpt lat="45.15216" lon="6.38474">
        <ele>2580.32</ele>
        <time>2021-02-28T10:54:40Z</time>
      </trkpt>
      <trkpt lat="45.15215" lon="6.38485">
        <ele>2575.99</ele>
        <time>2021-02-28T10:58:57Z</time>
      </trkpt>
      <trkpt lat="45.15215" lon="6.38486">
        <ele>2576.95</ele>
        <time>2021-02-28T11:06:59Z</time>
      </trkpt>
      <trkpt lat="45.15218" lon="6.38507">
        <ele>2568.3</ele>
        <time>2021-02-28T11:07:50Z</time>
      </trkpt>
      <trkpt lat="45.1522" lon="6.38525">
        <ele>2560.61</ele>
        <time>2021-02-28T11:08:08Z</time>
      </trkpt>
      <trkpt lat="45.15218" lon="6.3854">
        <ele>2551.96</ele>
        <time>2021-02-28T11:08:28Z</time>
      </trkpt>
      <trkpt lat="45.15216" lon="6.38556">
        <ele>2542.34</ele>
        <time>2021-02-28T11:08:41Z</time>
      </trkpt>
      <trkpt lat="45.15206" lon="6.38579">
        <ele>2530.33</ele>
        <time>2021-02-28T11:09:13Z</time>
      </trkpt>
      <trkpt lat="45.15208" lon="6.38602">
        <ele>2522.64</ele>
        <time>2021-02-28T11:09:57Z</time>
      </trkpt>
      <trkpt lat="45.15209" lon="6.38626">
        <ele>2508.7</ele>
        <time>2021-02-28T11:10:09Z</time>
      </trkpt>
      <trkpt lat="45.15204" lon="6.38651">
        <ele>2495.72</ele>
        <time>2021-02-28T11:10:23Z</time>
      </trkpt>
      <trkpt lat="45.15203" lon="6.38672">
        <ele>2486.59</ele>
        <time>2021-02-28T11:10:39Z</time>
      </trkpt>
      <trkpt lat="45.15201" lon="6.38695">
        <ele>2477.45</ele>
        <time>2021-02-28T11:10:48Z</time>
      </trkpt>
      <trkpt lat="45.1519" lon="6.3871">
        <ele>2468.32</ele>
        <time>2021-02-28T11:11:40Z</time>
      </trkpt>
      <trkpt lat="45.15174" lon="6.38725">
        <ele>2452.46</ele>
        <time>2021-02-28T11:11:49Z</time>
      </trkpt>
      <trkpt lat="45.1516" lon="6.38734">
        <ele>2440.92</ele>
        <time>2021-02-28T11:11:54Z</time>
      </trkpt>
      <trkpt lat="45.15146" lon="6.3875">
        <ele>2428.91</ele>
        <time>2021-02-28T11:11:59Z</time>
      </trkpt>
      <trkpt lat="45.15153" lon="6.38775">
        <ele>2424.1</ele>
        <time>2021-02-28T11:12:29Z</time>
      </trkpt>
      <trkpt lat="45.15153" lon="6.38806">
        <ele>2412.57</ele>
        <time>2021-02-28T11:12:35Z</time>
      </trkpt>
      <trkpt lat="45.15137" lon="6.38827">
        <ele>2398.15</ele>
        <time>2021-02-28T11:12:42Z</time>
      </trkpt>
      <trkpt lat="45.15135" lon="6.38853">
        <ele>2388.53</ele>
        <time>2021-02-28T11:12:48Z</time>
      </trkpt>
      <trkpt lat="45.15131" lon="6.38879">
        <ele>2378.44</ele>
        <time>2021-02-28T11:12:52Z</time>
      </trkpt>
      <trkpt lat="45.15118" lon="6.38889">
        <ele>2369.79</ele>
        <time>2021-02-28T11:13:02Z</time>
      </trkpt>
      <trkpt lat="45.15109" lon="6.38915">
        <ele>2360.17</ele>
        <time>2021-02-28T11:13:09Z</time>
      </trkpt>
      <trkpt lat="45.15099" lon="6.3894">
        <ele>2353.44</ele>
        <time>2021-02-28T11:13:18Z</time>
      </trkpt>
      <trkpt lat="45.15088" lon="6.38967">
        <ele>2342.39</ele>
        <time>2021-02-28T11:14:18Z</time>
      </trkpt>
      <trkpt lat="45.15092" lon="6.38995">
        <ele>2333.26</ele>
        <time>2021-02-28T11:14:22Z</time>
      </trkpt>
      <trkpt lat="45.15088" lon="6.3903">
        <ele>2324.12</ele>
        <time>2021-02-28T11:14:28Z</time>
      </trkpt>
      <trkpt lat="45.15092" lon="6.39065">
        <ele>2320.28</ele>
        <time>2021-02-28T11:14:36Z</time>
      </trkpt>
      <trkpt lat="45.15103" lon="6.39103">
        <ele>2314.99</ele>
        <time>2021-02-28T11:14:44Z</time>
      </trkpt>
      <trkpt lat="45.15113" lon="6.39141">
        <ele>2308.74</ele>
        <time>2021-02-28T11:14:55Z</time>
      </trkpt>
      <trkpt lat="45.1512" lon="6.39165">
        <ele>2305.38</ele>
        <time>2021-02-28T11:15:01Z</time>
      </trkpt>
      <trkpt lat="45.15133" lon="6.39213">
        <ele>2299.61</ele>
        <time>2021-02-28T11:15:16Z</time>
      </trkpt>
      <trkpt lat="45.1514" lon="6.39244">
        <ele>2296.25</ele>
        <time>2021-02-28T11:15:35Z</time>
      </trkpt>
      <trkpt lat="45.1515" lon="6.39271">
        <ele>2292.88</ele>
        <time>2021-02-28T11:15:39Z</time>
      </trkpt>
      <trkpt lat="45.1515" lon="6.39298">
        <ele>2286.15</ele>
        <time>2021-02-28T11:15:45Z</time>
      </trkpt>
      <trkpt lat="45.15164" lon="6.39329">
        <ele>2280.87</ele>
        <time>2021-02-28T11:15:50Z</time>
      </trkpt>
      <trkpt lat="45.15176" lon="6.39362">
        <ele>2277.5</ele>
        <time>2021-02-28T11:15:55Z</time>
      </trkpt>
      <trkpt lat="45.15178" lon="6.39392">
        <ele>2274.14</ele>
        <time>2021-02-28T11:15:59Z</time>
      </trkpt>
      <trkpt lat="45.15187" lon="6.39432">
        <ele>2269.33</ele>
        <time>2021-02-28T11:16:04Z</time>
      </trkpt>
      <trkpt lat="45.15192" lon="6.39475">
        <ele>2266.45</ele>
        <time>2021-02-28T11:16:37Z</time>
      </trkpt>
      <trkpt lat="45.15204" lon="6.39502">
        <ele>2261.64</ele>
        <time>2021-02-28T11:16:42Z</time>
      </trkpt>
      <trkpt lat="45.15216" lon="6.3954">
        <ele>2257.31</ele>
        <time>2021-02-28T11:16:47Z</time>
      </trkpt>
      <trkpt lat="45.15225" lon="6.39585">
        <ele>2254.91</ele>
        <time>2021-02-28T11:16:54Z</time>
      </trkpt>
      <trkpt lat="45.15237" lon="6.39635">
        <ele>2250.58</ele>
        <time>2021-02-28T11:17:03Z</time>
      </trkpt>
      <trkpt lat="45.15251" lon="6.39671">
        <ele>2247.22</ele>
        <time>2021-02-28T11:17:13Z</time>
      </trkpt>
      <trkpt lat="45.15267" lon="6.39686">
        <ele>2244.82</ele>
        <time>2021-02-28T11:17:19Z</time>
      </trkpt>
      <trkpt lat="45.1528" lon="6.39705">
        <ele>2243.37</ele>
        <time>2021-02-28T11:17:29Z</time>
      </trkpt>
      <trkpt lat="45.1528" lon="6.39732">
        <ele>2236.16</ele>
        <time>2021-02-28T11:18:41Z</time>
      </trkpt>
      <trkpt lat="45.15275" lon="6.39758">
        <ele>2220.78</ele>
        <time>2021-02-28T11:18:50Z</time>
      </trkpt>
      <trkpt lat="45.15264" lon="6.3979">
        <ele>2206.36</ele>
        <time>2021-02-28T11:18:58Z</time>
      </trkpt>
      <trkpt lat="45.15278" lon="6.39828">
        <ele>2196.27</ele>
        <time>2021-02-28T11:19:04Z</time>
      </trkpt>
      <trkpt lat="45.15292" lon="6.39856">
        <ele>2191.94</ele>
        <time>2021-02-28T11:19:07Z</time>
      </trkpt>
      <trkpt lat="45.15306" lon="6.39886">
        <ele>2186.66</ele>
        <time>2021-02-28T11:19:11Z</time>
      </trkpt>
      <trkpt lat="45.15316" lon="6.3991">
        <ele>2182.33</ele>
        <time>2021-02-28T11:19:15Z</time>
      </trkpt>
      <trkpt lat="45.15326" lon="6.39931">
        <ele>2179.45</ele>
        <time>2021-02-28T11:19:20Z</time>
      </trkpt>
      <trkpt lat="45.15342" lon="6.39949">
        <ele>2175.6</ele>
        <time>2021-02-28T11:19:26Z</time>
      </trkpt>
      <trkpt lat="45.15356" lon="6.39966">
        <ele>2172.72</ele>
        <time>2021-02-28T11:19:31Z</time>
      </trkpt>
      <trkpt lat="45.15356" lon="6.39984">
        <ele>2164.06</ele>
        <time>2021-02-28T11:20:03Z</time>
      </trkpt>
      <trkpt lat="45.15356" lon="6.40008">
        <ele>2153.49</ele>
        <time>2021-02-28T11:20:13Z</time>
      </trkpt>
      <trkpt lat="45.15373" lon="6.40026">
        <ele>2148.68</ele>
        <time>2021-02-28T11:20:19Z</time>
      </trkpt>
      <trkpt lat="45.15398" lon="6.40044">
        <ele>2143.4</ele>
        <time>2021-02-28T11:20:32Z</time>
      </trkpt>
      <trkpt lat="45.15407" lon="6.40071">
        <ele>2131.86</ele>
        <time>2021-02-28T11:20:42Z</time>
      </trkpt>
      <trkpt lat="45.15422" lon="6.40084">
        <ele>2122.25</ele>
        <time>2021-02-28T11:20:47Z</time>
      </trkpt>
      <trkpt lat="45.15445" lon="6.40099">
        <ele>2116.48</ele>
        <time>2021-02-28T11:20:54Z</time>
      </trkpt>
      <trkpt lat="45.15468" lon="6.40107">
        <ele>2113.12</ele>
        <time>2021-02-28T11:21:00Z</time>
      </trkpt>
      <trkpt lat="45.1549" lon="6.40113">
        <ele>2109.27</ele>
        <time>2021-02-28T11:21:06Z</time>
      </trkpt>
      <trkpt lat="45.15503" lon="6.40127">
        <ele>2102.54</ele>
        <time>2021-02-28T11:21:45Z</time>
      </trkpt>
      <trkpt lat="45.15523" lon="6.40134">
        <ele>2098.7</ele>
        <time>2021-02-28T11:21:49Z</time>
      </trkpt>
      <trkpt lat="45.15511" lon="6.40155">
        <ele>2091.49</ele>
        <time>2021-02-28T11:22:21Z</time>
      </trkpt>
      <trkpt lat="45.15529" lon="6.40173">
        <ele>2079.95</ele>
        <time>2021-02-28T11:22:40Z</time>
      </trkpt>
      <trkpt lat="45.15554" lon="6.40174">
        <ele>2074.18</ele>
        <time>2021-02-28T11:22:46Z</time>
      </trkpt>
      <trkpt lat="45.15579" lon="6.40202">
        <ele>2069.86</ele>
        <time>2021-02-28T11:22:54Z</time>
      </trkpt>
      <trkpt lat="45.15566" lon="6.40222">
        <ele>2067.45</ele>
        <time>2021-02-28T11:22:59Z</time>
      </trkpt>
      <trkpt lat="45.15546" lon="6.40214">
        <ele>2064.09</ele>
        <time>2021-02-28T11:23:04Z</time>
      </trkpt>
      <trkpt lat="45.15522" lon="6.40222">
        <ele>2061.68</ele>
        <time>2021-02-28T11:23:11Z</time>
      </trkpt>
      <trkpt lat="45.15521" lon="6.40238">
        <ele>2058.32</ele>
        <time>2021-02-28T11:24:05Z</time>
      </trkpt>
      <trkpt lat="45.15521" lon="6.40269">
        <ele>2048.71</ele>
        <time>2021-02-28T11:24:14Z</time>
      </trkpt>
      <trkpt lat="45.15528" lon="6.40298">
        <ele>2041.98</ele>
        <time>2021-02-28T11:24:22Z</time>
      </trkpt>
      <trkpt lat="45.15515" lon="6.40314">
        <ele>2033.81</ele>
        <time>2021-02-28T11:24:28Z</time>
      </trkpt>
      <trkpt lat="45.15498" lon="6.40333">
        <ele>2025.64</ele>
        <time>2021-02-28T11:24:36Z</time>
      </trkpt>
      <trkpt lat="45.15511" lon="6.40355">
        <ele>2018.91</ele>
        <time>2021-02-28T11:24:44Z</time>
      </trkpt>
      <trkpt lat="45.15537" lon="6.40375">
        <ele>2014.58</ele>
        <time>2021-02-28T11:24:52Z</time>
      </trkpt>
      <trkpt lat="45.15539" lon="6.40395">
        <ele>2006.89</ele>
        <time>2021-02-28T11:24:59Z</time>
      </trkpt>
      <trkpt lat="45.15569" lon="6.40405">
        <ele>2002.56</ele>
        <time>2021-02-28T11:25:09Z</time>
      </trkpt>
      <trkpt lat="45.15574" lon="6.40428">
        <ele>1994.39</ele>
        <time>2021-02-28T11:25:31Z</time>
      </trkpt>
      <trkpt lat="45.15554" lon="6.40434">
        <ele>1989.59</ele>
        <time>2021-02-28T11:25:43Z</time>
      </trkpt>
      <trkpt lat="45.15547" lon="6.4045">
        <ele>1983.82</ele>
        <time>2021-02-28T11:26:10Z</time>
      </trkpt>
      <trkpt lat="45.15518" lon="6.40459">
        <ele>1976.61</ele>
        <time>2021-02-28T11:26:18Z</time>
      </trkpt>
      <trkpt lat="45.15494" lon="6.40474">
        <ele>1970.84</ele>
        <time>2021-02-28T11:26:24Z</time>
      </trkpt>
      <trkpt lat="45.15476" lon="6.40484">
        <ele>1967.96</ele>
        <time>2021-02-28T11:26:28Z</time>
      </trkpt>
      <trkpt lat="45.15468" lon="6.405">
        <ele>1963.15</ele>
        <time>2021-02-28T11:26:42Z</time>
      </trkpt>
      <trkpt lat="45.15474" lon="6.40534">
        <ele>1960.27</ele>
        <time>2021-02-28T11:26:49Z</time>
      </trkpt>
      <trkpt lat="45.15452" lon="6.40545">
        <ele>1955.46</ele>
        <time>2021-02-28T11:26:54Z</time>
      </trkpt>
      <trkpt lat="45.15444" lon="6.40568">
        <ele>1952.09</ele>
        <time>2021-02-28T11:26:59Z</time>
      </trkpt>
      <trkpt lat="45.15427" lon="6.40576">
        <ele>1947.77</ele>
        <time>2021-02-28T11:27:05Z</time>
      </trkpt>
      <trkpt lat="45.15428" lon="6.40594">
        <ele>1942.96</ele>
        <time>2021-02-28T11:27:14Z</time>
      </trkpt>
      <trkpt lat="45.15429" lon="6.40619">
        <ele>1934.79</ele>
        <time>2021-02-28T11:27:40Z</time>
      </trkpt>
      <trkpt lat="45.1543" lon="6.40634">
        <ele>1929.02</ele>
        <time>2021-02-28T11:27:51Z</time>
      </trkpt>
      <trkpt lat="45.15406" lon="6.40648">
        <ele>1923.25</ele>
        <time>2021-02-28T11:27:59Z</time>
      </trkpt>
      <trkpt lat="45.15392" lon="6.40661">
        <ele>1915.56</ele>
        <time>2021-02-28T11:28:06Z</time>
      </trkpt>
      <trkpt lat="45.15378" lon="6.4068">
        <ele>1905.95</ele>
        <time>2021-02-28T11:28:17Z</time>
      </trkpt>
      <trkpt lat="45.15357" lon="6.40688">
        <ele>1903.55</ele>
        <time>2021-02-28T11:28:22Z</time>
      </trkpt>
      <trkpt lat="45.15343" lon="6.40698">
        <ele>1899.22</ele>
        <time>2021-02-28T11:28:59Z</time>
      </trkpt>
      <trkpt lat="45.15326" lon="6.40717">
        <ele>1896.82</ele>
        <time>2021-02-28T11:29:05Z</time>
      </trkpt>
      <trkpt lat="45.15305" lon="6.40749">
        <ele>1893.45</ele>
        <time>2021-02-28T11:29:16Z</time>
      </trkpt>
      <trkpt lat="45.15306" lon="6.40766">
        <ele>1889.13</ele>
        <time>2021-02-28T11:29:53Z</time>
      </trkpt>
      <trkpt lat="45.15294" lon="6.40776">
        <ele>1884.32</ele>
        <time>2021-02-28T11:30:01Z</time>
      </trkpt>
      <trkpt lat="45.1528" lon="6.40794">
        <ele>1878.07</ele>
        <time>2021-02-28T11:30:14Z</time>
      </trkpt>
      <trkpt lat="45.15281" lon="6.40813">
        <ele>1870.86</ele>
        <time>2021-02-28T11:30:24Z</time>
      </trkpt>
      <trkpt lat="45.15296" lon="6.40832">
        <ele>1867.5</ele>
        <time>2021-02-28T11:30:36Z</time>
      </trkpt>
      <trkpt lat="45.1529" lon="6.40846">
        <ele>1863.17</ele>
        <time>2021-02-28T11:30:48Z</time>
      </trkpt>
      <trkpt lat="45.15294" lon="6.40871">
        <ele>1858.85</ele>
        <time>2021-02-28T11:30:55Z</time>
      </trkpt>
      <trkpt lat="45.15276" lon="6.40876">
        <ele>1854.52</ele>
        <time>2021-02-28T11:31:01Z</time>
      </trkpt>
      <trkpt lat="45.15267" lon="6.40881">
        <ele>1850.68</ele>
        <time>2021-02-28T11:31:25Z</time>
      </trkpt>
      <trkpt lat="45.15247" lon="6.40883">
        <ele>1845.39</ele>
        <time>2021-02-28T11:31:37Z</time>
      </trkpt>
      <trkpt lat="45.15225" lon="6.40889">
        <ele>1841.54</ele>
        <time>2021-02-28T11:31:46Z</time>
      </trkpt>
      <trkpt lat="45.15224" lon="6.40908">
        <ele>1833.85</ele>
        <time>2021-02-28T11:32:30Z</time>
      </trkpt>
      <trkpt lat="45.15237" lon="6.40924">
        <ele>1828.08</ele>
        <time>2021-02-28T11:32:38Z</time>
      </trkpt>
      <trkpt lat="45.15243" lon="6.40945">
        <ele>1820.39</ele>
        <time>2021-02-28T11:33:06Z</time>
      </trkpt>
      <trkpt lat="45.1524" lon="6.40973">
        <ele>1807.9</ele>
        <time>2021-02-28T11:33:18Z</time>
      </trkpt>
      <trkpt lat="45.15219" lon="6.40983">
        <ele>1804.05</ele>
        <time>2021-02-28T11:33:24Z</time>
      </trkpt>
      <trkpt lat="45.15197" lon="6.40994">
        <ele>1800.21</ele>
        <time>2021-02-28T11:33:30Z</time>
      </trkpt>
      <trkpt lat="45.15193" lon="6.41023">
        <ele>1793.48</ele>
        <time>2021-02-28T11:34:16Z</time>
      </trkpt>
      <trkpt lat="45.15177" lon="6.41038">
        <ele>1790.59</ele>
        <time>2021-02-28T11:34:21Z</time>
      </trkpt>
      <trkpt lat="45.15172" lon="6.41061">
        <ele>1783.86</ele>
        <time>2021-02-28T11:34:30Z</time>
      </trkpt>
      <trkpt lat="45.15158" lon="6.41075">
        <ele>1780.98</ele>
        <time>2021-02-28T11:34:39Z</time>
      </trkpt>
      <trkpt lat="45.15181" lon="6.41078">
        <ele>1777.61</ele>
        <time>2021-02-28T11:34:47Z</time>
      </trkpt>
      <trkpt lat="45.1518" lon="6.41096">
        <ele>1772.33</ele>
        <time>2021-02-28T11:34:54Z</time>
      </trkpt>
      <trkpt lat="45.15165" lon="6.41111">
        <ele>1769.92</ele>
        <time>2021-02-28T11:35:00Z</time>
      </trkpt>
      <trkpt lat="45.15189" lon="6.41118">
        <ele>1765.6</ele>
        <time>2021-02-28T11:35:08Z</time>
      </trkpt>
      <trkpt lat="45.15179" lon="6.41135">
        <ele>1762.71</ele>
        <time>2021-02-28T11:36:17Z</time>
      </trkpt>
      <trkpt lat="45.15177" lon="6.41157">
        <ele>1754.06</ele>
        <time>2021-02-28T11:36:29Z</time>
      </trkpt>
      <trkpt lat="45.1519" lon="6.41168">
        <ele>1750.22</ele>
        <time>2021-02-28T11:36:40Z</time>
      </trkpt>
      <trkpt lat="45.15197" lon="6.41183">
        <ele>1744.45</ele>
        <time>2021-02-28T11:37:01Z</time>
      </trkpt>
      <trkpt lat="45.15214" lon="6.41192">
        <ele>1741.08</ele>
        <time>2021-02-28T11:37:39Z</time>
      </trkpt>
      <trkpt lat="45.15231" lon="6.41201">
        <ele>1737.24</ele>
        <time>2021-02-28T11:37:42Z</time>
      </trkpt>
      <trkpt lat="45.1525" lon="6.41204">
        <ele>1735.8</ele>
        <time>2021-02-28T11:37:45Z</time>
      </trkpt>
      <trkpt lat="45.15276" lon="6.41212">
        <ele>1733.88</ele>
        <time>2021-02-28T11:37:54Z</time>
      </trkpt>
      <trkpt lat="45.15294" lon="6.41221">
        <ele>1730.03</ele>
        <time>2021-02-28T11:38:08Z</time>
      </trkpt>
      <trkpt lat="45.15286" lon="6.41242">
        <ele>1724.74</ele>
        <time>2021-02-28T11:38:16Z</time>
      </trkpt>
      <trkpt lat="45.15303" lon="6.41253">
        <ele>1722.82</ele>
        <time>2021-02-28T11:38:21Z</time>
      </trkpt>
      <trkpt lat="45.15316" lon="6.41276">
        <ele>1718.49</ele>
        <time>2021-02-28T11:38:26Z</time>
      </trkpt>
      <trkpt lat="45.15332" lon="6.41286">
        <ele>1716.57</ele>
        <time>2021-02-28T11:38:32Z</time>
      </trkpt>
      <trkpt lat="45.15324" lon="6.41315">
        <ele>1708.88</ele>
        <time>2021-02-28T11:38:43Z</time>
      </trkpt>
      <trkpt lat="45.15315" lon="6.41339">
        <ele>1704.55</ele>
        <time>2021-02-28T11:38:57Z</time>
      </trkpt>
      <trkpt lat="45.153" lon="6.41353">
        <ele>1701.67</ele>
        <time>2021-02-28T11:39:21Z</time>
      </trkpt>
      <trkpt lat="45.15326" lon="6.41358">
        <ele>1696.38</ele>
        <time>2021-02-28T11:39:51Z</time>
      </trkpt>
      <trkpt lat="45.15354" lon="6.41362">
        <ele>1690.62</ele>
        <time>2021-02-28T11:39:58Z</time>
      </trkpt>
      <trkpt lat="45.15377" lon="6.41359">
        <ele>1687.73</ele>
        <time>2021-02-28T11:40:04Z</time>
      </trkpt>
      <trkpt lat="45.15408" lon="6.41361">
        <ele>1681.96</ele>
        <time>2021-02-28T11:40:27Z</time>
      </trkpt>
      <trkpt lat="45.15425" lon="6.41377">
        <ele>1677.64</ele>
        <time>2021-02-28T11:40:33Z</time>
      </trkpt>
      <trkpt lat="45.15411" lon="6.41395">
        <ele>1672.35</ele>
        <time>2021-02-28T11:40:44Z</time>
      </trkpt>
      <trkpt lat="45.15417" lon="6.41412">
        <ele>1666.1</ele>
        <time>2021-02-28T11:41:15Z</time>
      </trkpt>
      <trkpt lat="45.15408" lon="6.41436">
        <ele>1659.85</ele>
        <time>2021-02-28T11:41:27Z</time>
      </trkpt>
      <trkpt lat="45.15411" lon="6.41433">
        <ele>1655.53</ele>
        <time>2021-02-28T11:43:30Z</time>
      </trkpt>
      <trkpt lat="45.15413" lon="6.4143">
        <ele>1656.49</ele>
        <time>2021-02-28T11:45:22Z</time>
      </trkpt>
      <trkpt lat="45.15411" lon="6.41436">
        <ele>1656.01</ele>
        <time>2021-02-28T11:48:46Z</time>
      </trkpt>
      <trkpt lat="45.15413" lon="6.41436">
        <ele>1656.97</ele>
        <time>2021-02-28T11:53:12Z</time>
      </trkpt>
      <trkpt lat="45.15412" lon="6.41434">
        <ele>1657.93</ele>
        <time>2021-02-28T11:57:48Z</time>
      </trkpt>
      <trkpt lat="45.15411" lon="6.41434">
        <ele>1659.37</ele>
        <time>2021-02-28T12:04:50Z</time>
      </trkpt>
      <trkpt lat="45.15409" lon="6.41433">
        <ele>1660.33</ele>
        <time>2021-02-28T12:10:48Z</time>
      </trkpt>
      <trkpt lat="45.15408" lon="6.41436">
        <ele>1660.81</ele>
        <time>2021-02-28T12:15:20Z</time>
      </trkpt>
      <trkpt lat="45.15404" lon="6.41444">
        <ele>1662.74</ele>
        <time>2021-02-28T12:19:09Z</time>
      </trkpt>
      <trkpt lat="45.15388" lon="6.41474">
        <ele>1656.49</ele>
        <time>2021-02-28T12:19:17Z</time>
      </trkpt>
      <trkpt lat="45.15392" lon="6.41491">
        <ele>1651.2</ele>
        <time>2021-02-28T12:19:39Z</time>
      </trkpt>
      <trkpt lat="45.15394" lon="6.41512">
        <ele>1646.88</ele>
        <time>2021-02-28T12:19:44Z</time>
      </trkpt>
      <trkpt lat="45.15382" lon="6.41532">
        <ele>1643.51</ele>
        <time>2021-02-28T12:19:47Z</time>
      </trkpt>
      <trkpt lat="45.15367" lon="6.41555">
        <ele>1639.67</ele>
        <time>2021-02-28T12:19:52Z</time>
      </trkpt>
      <trkpt lat="45.15343" lon="6.41576">
        <ele>1634.86</ele>
        <time>2021-02-28T12:19:59Z</time>
      </trkpt>
      <trkpt lat="45.15354" lon="6.41599">
        <ele>1629.09</ele>
        <time>2021-02-28T12:20:09Z</time>
      </trkpt>
      <trkpt lat="45.15349" lon="6.41616">
        <ele>1624.77</ele>
        <time>2021-02-28T12:20:26Z</time>
      </trkpt>
      <trkpt lat="45.15348" lon="6.41633">
        <ele>1618.52</ele>
        <time>2021-02-28T12:20:32Z</time>
      </trkpt>
      <trkpt lat="45.15353" lon="6.4166">
        <ele>1611.31</ele>
        <time>2021-02-28T12:20:40Z</time>
      </trkpt>
      <trkpt lat="45.15342" lon="6.41688">
        <ele>1604.58</ele>
        <time>2021-02-28T12:20:48Z</time>
      </trkpt>
      <trkpt lat="45.15325" lon="6.41713">
        <ele>1596.89</ele>
        <time>2021-02-28T12:20:55Z</time>
      </trkpt>
      <trkpt lat="45.15301" lon="6.41727">
        <ele>1593.52</ele>
        <time>2021-02-28T12:21:04Z</time>
      </trkpt>
      <trkpt lat="45.15287" lon="6.41743">
        <ele>1589.68</ele>
        <time>2021-02-28T12:21:11Z</time>
      </trkpt>
      <trkpt lat="45.15275" lon="6.41767">
        <ele>1582.95</ele>
        <time>2021-02-28T12:21:32Z</time>
      </trkpt>
      <trkpt lat="45.15256" lon="6.4177">
        <ele>1581.03</ele>
        <time>2021-02-28T12:21:54Z</time>
      </trkpt>
      <trkpt lat="45.15224" lon="6.41778">
        <ele>1579.1</ele>
        <time>2021-02-28T12:22:23Z</time>
      </trkpt>
      <trkpt lat="45.15228" lon="6.41798">
        <ele>1572.37</ele>
        <time>2021-02-28T12:22:36Z</time>
      </trkpt>
      <trkpt lat="45.15214" lon="6.41822">
        <ele>1561.8</ele>
        <time>2021-02-28T12:22:55Z</time>
      </trkpt>
      <trkpt lat="45.15215" lon="6.41842">
        <ele>1556.99</ele>
        <time>2021-02-28T12:23:16Z</time>
      </trkpt>
      <trkpt lat="45.15241" lon="6.41859">
        <ele>1552.67</ele>
        <time>2021-02-28T12:23:44Z</time>
      </trkpt>
      <trkpt lat="45.15251" lon="6.41887">
        <ele>1548.34</ele>
        <time>2021-02-28T12:23:52Z</time>
      </trkpt>
      <trkpt lat="45.15256" lon="6.41913">
        <ele>1545.46</ele>
        <time>2021-02-28T12:23:56Z</time>
      </trkpt>
      <trkpt lat="45.15267" lon="6.41929">
        <ele>1543.05</ele>
        <time>2021-02-28T12:24:12Z</time>
      </trkpt>
      <trkpt lat="45.15257" lon="6.41955">
        <ele>1540.65</ele>
        <time>2021-02-28T12:25:24Z</time>
      </trkpt>
      <trkpt lat="45.15254" lon="6.41982">
        <ele>1539.69</ele>
        <time>2021-02-28T12:25:52Z</time>
      </trkpt>
      <trkpt lat="45.15242" lon="6.41999">
        <ele>1541.61</ele>
        <time>2021-02-28T12:26:38Z</time>
      </trkpt>
      <trkpt lat="45.1524" lon="6.41998">
        <ele>1540.65</ele>
        <time>2021-02-28T12:27:28Z</time>
      </trkpt>
    </trkseg>
  </trk>
</gpx>